Medemborg — PJAG — position and weather

sailwx.info

Track history (hours):
 
Tides and Currents Weather Stations Pressure Air Temp Water Temp Dewpoint Dewpoint Depression Visibility Wind Speed Wind Dir Waves Ship Positions

Medemborg

Last reported at 2014-Sep-16 04:07 UTC. Time now 2014-Sep-16 11:32 UTC.
Position N 37°03' E 013°20'.

Length 135 m; draft 6.7 m.

Type: Cargo ship. MMSI: 306581000.

Date/timePositionNaut miles runAvg speedWind from/ knotsBaromVisibWave heightAir tempDewpointWater temp
2014-Sep-16 04:07N 37°03' E 013°20'813.9
2014-Sep-16 03:33N 36°60' E 013°28'1513.7
2014-Sep-16 02:30N 36°54' E 013°45'1212.9
2014-Sep-16 01:33N 36°50' E 013°59'1312.9
2014-Sep-16 00:33N 36°45' E 014°14'1313.2
2014-Sep-15 23:33N 36°39' E 014°29'1713.0
2014-Sep-15 22:16N 36°35' E 014°50'913.2
2014-Sep-15 21:33N 36°34' E 015°01'16 0.4
2014-Sep-14 05:33N 36°36' E 014°42'1413.8
2014-Sep-14 04:33N 36°40' E 014°25'1413.9
2014-Sep-14 03:34N 36°44' E 014°08'1413.6
2014-Sep-14 02:33N 36°48' E 013°52'1413.6
2014-Sep-14 01:33N 36°52' E 013°36'5313.4
2014-Sep-13 21:33N 37°06' E 012°31'1313.4
2014-Sep-13 20:33N 37°10' E 012°15'36213.4
2014-Sep-12 17:27N 37°08' E 004°41'1913.8
2014-Sep-12 16:04N 37°06' E 004°17'713.8
2014-Sep-12 15:33N 37°05' E 004°08'1514.1
2014-Sep-12 14:30N 37°03' E 003°50'1313.8
2014-Sep-12 13:33N 37°00' E 003°34'43814.1
2014-Sep-11 06:33N 35°58' W 005°25'  
2014-Sep-07 10:29N 50°30' W 000°06'1513.5
2014-Sep-07 09:23N 50°34' E 000°17'1012.7
2014-Sep-07 08:33N 50°37' E 000°33'1212.2
2014-Sep-07 07:33N 50°44' E 000°48'1312.9
2014-Sep-07 06:34N 50°52' E 001°05'1514.8
2014-Sep-07 05:34N 51°02' E 001°22'1616.2
2014-Sep-07 04:33N 51°12' E 001°42'1514.7
2014-Sep-07 03:34N 51°24' E 001°56'1313.3
2014-Sep-07 02:33N 51°34' E 002°09'1312.6
2014-Sep-07 01:33N 51°44' E 002°22'1211.9
2014-Sep-07 00:33N 51°53' E 002°34'15712.6
2014-Sep-06 12:06N 54°07' E 004°50'1013.6
2014-Sep-06 11:21N 54°15' E 004°60'1113.6
2014-Sep-06 10:33N 54°25' E 005°10'  
Track history (hours):
 
Tides and Currents Weather Stations Pressure Air Temp Water Temp Dewpoint Dewpoint Depression Visibility Wind Speed Wind Dir Waves Ship Positions

Medemborg

Last reported at 2014-Sep-16 04:07 UTC. Time now 2014-Sep-16 11:32 UTC.
Position N 37°03' E 013°20'.

Length 135 m; draft 6.7 m.

Type: Cargo ship. MMSI: 306581000.

Date/timePositionNaut miles runAvg speedWind from/ knotsBaromVisibWave heightAir tempDewpointWater temp
2014-Sep-16 04:07N 37°03' E 013°20'813.9
2014-Sep-16 03:33N 36°60' E 013°28'1513.7
2014-Sep-16 02:30N 36°54' E 013°45'1212.9
2014-Sep-16 01:33N 36°50' E 013°59'1312.9
2014-Sep-16 00:33N 36°45' E 014°14'1313.2
2014-Sep-15 23:33N 36°39' E 014°29'1713.0
2014-Sep-15 22:16N 36°35' E 014°50'913.2
2014-Sep-15 21:33N 36°34' E 015°01'16 0.4
2014-Sep-14 05:33N 36°36' E 014°42'1413.8
2014-Sep-14 04:33N 36°40' E 014°25'1413.9
2014-Sep-14 03:34N 36°44' E 014°08'1413.6
2014-Sep-14 02:33N 36°48' E 013°52'1413.6
2014-Sep-14 01:33N 36°52' E 013°36'5313.4
2014-Sep-13 21:33N 37°06' E 012°31'1313.4
2014-Sep-13 20:33N 37°10' E 012°15'36213.4
2014-Sep-12 17:27N 37°08' E 004°41'1913.8
2014-Sep-12 16:04N 37°06' E 004°17'713.8
2014-Sep-12 15:33N 37°05' E 004°08'1514.1
2014-Sep-12 14:30N 37°03' E 003°50'1313.8
2014-Sep-12 13:33N 37°00' E 003°34'43814.1
2014-Sep-11 06:33N 35°58' W 005°25'  
2014-Sep-07 10:29N 50°30' W 000°06'1513.5
2014-Sep-07 09:23N 50°34' E 000°17'1012.7
2014-Sep-07 08:33N 50°37' E 000°33'1212.2
2014-Sep-07 07:33N 50°44' E 000°48'1312.9
2014-Sep-07 06:34N 50°52' E 001°05'1514.8
2014-Sep-07 05:34N 51°02' E 001°22'1616.2
2014-Sep-07 04:33N 51°12' E 001°42'1514.7
2014-Sep-07 03:34N 51°24' E 001°56'1313.3
2014-Sep-07 02:33N 51°34' E 002°09'1312.6
2014-Sep-07 01:33N 51°44' E 002°22'1211.9
2014-Sep-07 00:33N 51°53' E 002°34'15712.6
2014-Sep-06 12:06N 54°07' E 004°50'1013.6
2014-Sep-06 11:21N 54°15' E 004°60'1113.6
2014-Sep-06 10:33N 54°25' E 005°10'  

Dump ship's entire track history